Jerome, Arizona
Current Conditions -  °F | °C
As of 1:53 PM on Sunday 23 Nov 2014 (Local Time) from KPRC Reporting Station
Clear Clear  
Wind Chill: 51°   Ceiling: Unl
Heat Index: 51°   Visibility: 10mi
Dew Point: -4°   Wind: 26mph
Humidity: 10%   Direction: 350°N
Pressure: 30.13"   Gusts: 36mph
Location:  34.75°N, 112.11°W
Report Text: KPRC 232053Z 35023G31KT 10SM CLR 11/M20 A3013 RMK AO2 PK WND 02034/2004 SLP166 T01061200 56014
Loading
Personal Weather Stations






























Interactive Weather Map New forecast layout! Learn more

10-Day Weather Forecast

Advertisements
Track Severe Weather on mobile